Main page
Satellite images 15-day forecastsClimateMarine weather Cyclones Lightning AirportsFAQ Newsletter About
Weather : Europe Africa North America South America Asia Australia-Oceania Others
Languages Contact

Waddington, England

RAF

latitude: 53-10N, longitude: 000-31W, elevation: 68 m


METAR: EGXW 301450Z 24008KT 9999 FEW035 20/11 Q1021 BLU NOSIG
TAF: missing

Time: 16:50 (15:50 UTC)

Current weather observation

The report was made 01 hour and 00 minutes ago, at 14:50 UTC  
Wind 08 kt from the West/Southwest
Temperature 20°C
Humidity 56%
Pressure 1021 hPa
Visibility 10 km or more
Few clouds at a height of 3500 ft

Change units
The information on this site is subject to a disclaimer
Weather : Europe Africa North America South America Asia Australia-Oceania Others
Satellite images 15-day forecastsClimateMarine weather Cyclones Lightning AirportsFAQ Languages Contact Newsletter About